createdAt,value
2022-12-27T00:00:32.449Z,98495.66
2022-12-27T00:05:34.205Z,98485.34
2022-12-27T00:10:36.726Z,98484.38
2022-12-27T00:15:38.579Z,98481.94
2022-12-27T00:20:40.481Z,98502.72
2022-12-27T00:25:42.391Z,98498.50
2022-12-27T00:30:44.272Z,98507.88
2022-12-27T00:35:46.061Z,98513.72
2022-12-27T00:40:48.371Z,98534.09
2022-12-27T00:45:50.558Z,98546.06
2022-12-27T00:51:05.620Z,98556.50
2022-12-27T00:56:13.956Z,98577.44
2022-12-27T01:01:19.896Z,98580.66
2022-12-27T01:06:29.111Z,98582.53
2022-12-27T01:11:31.995Z,98584.84
2022-12-27T01:16:33.911Z,98602.88
2022-12-27T01:21:35.892Z,98612.13
2022-12-27T01:26:37.758Z,98621.38
2022-12-27T01:31:40.851Z,98637.66
2022-12-27T01:36:43.309Z,98648.25
2022-12-27T01:42:04.094Z,98645.25
2022-12-27T01:47:29.572Z,98650.66
2022-12-27T01:52:59.499Z,98648.78
2022-12-27T01:58:07.317Z,98648.34
2022-12-27T02:03:12.056Z,98634.06
2022-12-27T02:08:29.261Z,98622.13
2022-12-27T02:13:34.846Z,98638.41
2022-12-27T02:18:36.757Z,98662.56
2022-12-27T02:24:03.522Z,98661.88
2022-12-27T02:29:15.672Z,98688.63
2022-12-27T02:34:26.550Z,98685.59
2022-12-27T02:39:30.888Z,98701.16
2022-12-27T02:44:51.096Z,98708.00
2022-12-27T02:50:11.185Z,98717.41
2022-12-27T02:56:09.594Z,98719.56
2022-12-27T03:01:47.250Z,98745.94
2022-12-27T03:07:01.132Z,98748.06
2022-12-27T03:12:45.842Z,98757.81
2022-12-27T03:17:58.607Z,98763.00
2022-12-27T03:23:22.069Z,98780.69
2022-12-27T03:28:47.324Z,98793.25
2022-12-27T03:34:00.041Z,98785.03
2022-12-27T03:39:20.424Z,98797.78
2022-12-27T03:44:25.365Z,98798.84
2022-12-27T03:50:03.185Z,98811.94
2022-12-27T03:55:06.088Z,98814.41
2022-12-27T04:00:09.088Z,98820.16
2022-12-27T04:05:18.203Z,98819.69
2022-12-27T04:10:38.552Z,98830.22
2022-12-27T04:15:58.979Z,98827.75
2022-12-27T04:21:19.214Z,98826.94
2022-12-27T04:26:39.201Z,98840.16
2022-12-27T04:31:59.455Z,98843.19
2022-12-27T04:37:01.293Z,98831.03
2022-12-27T04:42:21.536Z,98838.28
2022-12-27T04:47:42.777Z,98837.91
2022-12-27T04:53:03.618Z,98845.41
2022-12-27T04:58:05.595Z,98838.16
2022-12-27T05:03:11.387Z,98847.97
2022-12-27T05:08:33.802Z,98850.66
2022-12-27T05:13:54.277Z,98862.47
2022-12-27T05:18:56.466Z,98858.47
2022-12-27T05:24:16.700Z,98859.53
2022-12-27T05:29:18.440Z,98859.53
2022-12-27T05:34:20.165Z,98845.84
2022-12-27T05:39:21.920Z,98850.88
2022-12-27T05:44:23.640Z,98857.66
2022-12-27T05:49:25.453Z,98860.22
2022-12-27T05:54:27.205Z,98869.81
2022-12-27T05:59:29.037Z,98866.41
2022-12-27T06:04:30.930Z,98872.28
2022-12-27T06:09:33.026Z,98875.78
2022-12-27T06:14:34.829Z,98871.56
2022-12-27T06:19:36.643Z,98883.81
2022-12-27T06:24:38.442Z,98886.72
2022-12-27T06:29:40.404Z,98888.72
2022-12-27T06:34:42.164Z,98894.19
2022-12-27T06:39:45.303Z,98893.59
2022-12-27T06:44:47.104Z,98911.91
2022-12-27T06:49:48.906Z,98917.28
2022-12-27T06:54:50.661Z,98917.50
2022-12-27T06:59:54.174Z,98939.09
2022-12-27T07:04:56.275Z,98932.31
2022-12-27T07:09:59.254Z,98947.03
2022-12-27T07:15:00.992Z,98959.75
2022-12-27T07:20:04.751Z,98955.56
2022-12-27T07:25:06.957Z,98969.34
2022-12-27T07:30:09.437Z,98964.19
2022-12-27T07:35:11.261Z,98963.47
2022-12-27T07:40:13.313Z,98983.31
2022-12-27T07:45:15.244Z,98975.72
2022-12-27T07:50:16.955Z,98980.03
2022-12-27T07:55:18.763Z,98990.31
2022-12-27T08:00:21.026Z,98988.38
2022-12-27T08:05:27.649Z,98996.69
2022-12-27T08:10:29.968Z,99009.31
2022-12-27T08:15:31.979Z,99008.28
2022-12-27T08:20:34.213Z,99001.38
2022-12-27T08:25:36.113Z,99007.97
2022-12-27T08:30:39.401Z,99011.63
2022-12-27T08:35:52.885Z,99010.16
2022-12-27T08:40:55.529Z,99007.28
2022-12-27T08:46:08.552Z,99022.47
2022-12-27T08:51:13.203Z,99025.88
2022-12-27T08:56:16.412Z,99029.88
2022-12-27T09:01:18.718Z,99030.38
2022-12-27T09:06:22.760Z,99045.69
2022-12-27T09:11:33.447Z,99067.47
2022-12-27T09:16:36.378Z,99061.97
2022-12-27T09:21:42.182Z,99061.66
2022-12-27T09:26:44.039Z,99059.19
2022-12-27T09:31:45.875Z,99053.38
2022-12-27T09:36:48.985Z,99054.84
2022-12-27T09:47:50.070Z,99052.44
2022-12-27T09:53:12.486Z,99036.66
2022-12-27T09:58:42.831Z,99038.19
2022-12-27T10:03:44.664Z,99017.25
2022-12-27T10:08:59.477Z,99021.25
2022-12-27T10:14:09.930Z,99021.84
2022-12-27T10:19:41.270Z,99019.63
2022-12-27T10:25:00.203Z,99011.72
2022-12-27T10:30:03.717Z,99012.19
2022-12-27T10:35:06.969Z,99013.13
2022-12-27T10:40:19.296Z,99018.16
2022-12-27T10:45:37.092Z,99030.94
2022-12-27T10:50:44.514Z,99016.78
2022-12-27T10:55:46.588Z,99015.59
2022-12-27T11:00:56.989Z,99021.22
2022-12-27T11:06:07.256Z,99015.72
2022-12-27T11:11:18.112Z,99013.63
2022-12-27T11:16:31.906Z,99022.63
2022-12-27T11:21:40.639Z,99033.41
2022-12-27T11:26:54.167Z,99027.22
2022-12-27T11:31:57.356Z,99031.44
2022-12-27T11:37:14.421Z,99030.84
2022-12-27T11:42:38.644Z,99045.13
2022-12-27T11:47:46.622Z,99049.69
2022-12-27T11:52:48.739Z,99051.56
2022-12-27T11:58:14.744Z,99045.84
2022-12-27T12:03:45.921Z,99050.41
2022-12-27T12:08:59.728Z,99050.75
2022-12-27T12:14:11.613Z,99031.53
2022-12-27T12:19:44.922Z,99029.91
2022-12-27T12:24:55.697Z,99024.75
2022-12-27T12:29:57.498Z,99025.69
2022-12-27T12:35:33.055Z,99034.13
2022-12-27T12:40:53.498Z,99021.47
2022-12-27T12:46:02.947Z,99027.56
2022-12-27T12:51:25.666Z,99041.28
2022-12-27T12:57:04.300Z,99039.75
2022-12-27T13:02:06.118Z,99053.34
2022-12-27T13:07:37.766Z,99048.88
2022-12-27T13:12:59.571Z,99041.03
2022-12-27T13:18:07.443Z,99056.50
2022-12-27T13:23:09.191Z,99044.44
2022-12-27T13:28:29.615Z,99052.53
2022-12-27T13:33:48.829Z,99050.19
2022-12-27T13:39:42.555Z,99063.06
2022-12-27T13:45:22.018Z,99073.38
2022-12-27T13:51:05.917Z,99080.19
2022-12-27T14:02:20.587Z,99068.00
2022-12-27T14:07:40.837Z,99072.44
2022-12-27T14:13:01.205Z,99062.38
2022-12-27T14:18:05.940Z,99066.09
2022-12-27T14:23:07.671Z,99076.88
2022-12-27T14:28:18.528Z,99076.28
2022-12-27T14:33:59.523Z,99078.28
2022-12-27T14:39:32.249Z,99082.13
2022-12-27T14:44:49.427Z,99081.53
2022-12-27T14:50:24.981Z,99086.94
2022-12-27T14:55:54.946Z,99097.47
2022-12-27T15:01:39.608Z,99104.50
2022-12-27T15:07:02.893Z,99100.50
2022-12-27T15:12:43.685Z,99100.72
2022-12-27T15:18:34.265Z,99097.56
2022-12-27T15:23:51.678Z,99103.97
2022-12-27T15:29:17.022Z,99099.94
2022-12-27T15:34:31.319Z,99088.22
2022-12-27T15:39:33.206Z,99097.00
2022-12-27T15:45:00.752Z,99089.59
2022-12-27T15:50:41.667Z,99094.38
2022-12-27T15:56:17.632Z,99087.00
2022-12-27T16:01:28.361Z,99090.94
2022-12-27T16:06:33.332Z,99103.31
2022-12-27T16:12:09.465Z,99109.50
2022-12-27T16:17:20.347Z,99109.13
2022-12-27T16:22:28.268Z,99114.59
2022-12-27T16:27:33.183Z,99100.31
2022-12-27T16:32:35.030Z,99097.13
2022-12-27T16:37:45.148Z,99098.28
2022-12-27T16:42:47.590Z,99116.63
2022-12-27T16:48:10.749Z,99117.91
2022-12-27T16:53:34.431Z,99126.88
2022-12-27T16:58:38.837Z,99123.69
2022-12-27T17:03:40.611Z,99112.91
2022-12-27T17:08:42.545Z,99111.25
2022-12-27T17:13:49.696Z,99099.44
2022-12-27T17:19:02.835Z,99102.94
2022-12-27T17:24:09.203Z,99102.00
2022-12-27T17:29:29.382Z,99102.81
2022-12-27T17:34:56.865Z,99105.28
2022-12-27T17:40:34.207Z,99105.19
2022-12-27T17:46:13.634Z,99105.19
2022-12-27T17:51:20.072Z,99096.66
2022-12-27T17:56:42.050Z,99099.22
2022-12-27T18:01:50.378Z,99098.41
2022-12-27T18:06:58.057Z,99100.03
2022-12-27T18:12:00.785Z,99100.03
2022-12-27T18:17:02.986Z,99096.53
2022-12-27T18:22:05.192Z,99094.91
2022-12-27T18:27:19.483Z,99095.72
2022-12-27T18:32:23.575Z,99099.22
2022-12-27T18:37:27.716Z,99103.53
2022-12-27T18:42:29.712Z,99103.53
2022-12-27T18:47:38.377Z,99114.66
2022-12-27T18:52:41.767Z,99110.31
2022-12-27T18:57:44.079Z,99111.16
2022-12-27T19:02:46.087Z,99096.53
2022-12-27T19:07:59.831Z,99091.28
2022-12-27T19:13:02.850Z,99089.53
2022-12-27T19:18:07.223Z,99090.34
2022-12-27T19:23:28.960Z,99086.03
2022-12-27T19:28:31.895Z,99078.31
2022-12-27T19:33:35.939Z,99088.50
2022-12-27T19:38:47.738Z,99089.31
2022-12-27T19:43:50.366Z,99091.06
2022-12-27T19:49:23.547Z,99090.34
2022-12-27T19:54:20.203Z,99081.09
2022-12-27T19:59:23.247Z,99081.09
2022-12-27T20:04:25.168Z,99088.94
2022-12-27T20:09:27.441Z,99095.94
2022-12-27T20:14:29.280Z,99091.81
2022-12-27T20:19:31.189Z,99082.56
2022-12-27T20:29:51.189Z,99087.09
2022-12-27T20:34:53.012Z,99093.19
2022-12-27T20:39:54.871Z,99090.72
2022-12-27T20:44:58.361Z,99078.69
2022-12-27T20:50:00.209Z,99073.63
2022-12-27T20:55:01.950Z,99077.13
2022-12-27T21:00:07.350Z,99075.38
2022-12-27T21:05:09.426Z,99057.38
2022-12-27T21:10:11.453Z,99056.47
2022-12-27T21:15:13.769Z,99047.09
2022-12-27T21:20:15.671Z,99044.63
2022-12-27T21:25:17.498Z,99039.50
2022-12-27T21:30:19.415Z,99037.84
2022-12-27T21:35:21.328Z,99030.03
2022-12-27T21:40:23.153Z,99024.88
2022-12-27T21:45:25.211Z,99023.97
2022-12-27T21:50:30.190Z,99019.63
2022-12-27T21:55:36.719Z,99012.03
2022-12-27T22:00:39.294Z,98998.34
2022-12-27T22:05:42.344Z,98992.28
2022-12-27T22:10:45.443Z,98994.84
2022-12-27T22:15:57.954Z,98984.66
2022-12-27T22:21:03.889Z,98980.34
2022-12-27T22:26:13.101Z,98981.16
2022-12-27T22:31:21.177Z,98978.59
2022-12-27T22:36:25.529Z,98976.84
2022-12-27T22:41:33.077Z,98974.38
2022-12-27T22:47:24.403Z,98982.81
2022-12-27T22:51:57.633Z,98980.34
2022-12-27T22:56:59.556Z,98966.56
2022-12-27T23:02:01.565Z,98973.34
2022-12-27T23:07:03.747Z,98962.03
2022-12-27T23:12:06.759Z,98963.44
2022-12-27T23:17:08.568Z,98949.66
2022-12-27T23:22:10.295Z,98941.72
2022-12-27T23:27:12.078Z,98934.72
2022-12-27T23:32:14.133Z,98920.22
2022-12-27T23:37:15.874Z,98909.91
2022-12-27T23:42:17.734Z,98896.34
2022-12-27T23:47:19.727Z,98898.00
2022-12-27T23:52:21.727Z,98890.38
2022-12-27T23:57:23.472Z,98893.06
